createdAt,value
2018-11-06T00:00:41.949Z,20.10
2018-11-06T00:01:41.851Z,21.60
2018-11-06T00:02:41.957Z,23.10
2018-11-06T00:03:41.877Z,21.80
2018-11-06T00:04:41.760Z,21.80
2018-11-06T00:05:41.882Z,22.30
2018-11-06T00:06:41.717Z,22.40
2018-11-06T00:07:41.788Z,24.00
2018-11-06T00:08:41.799Z,23.00
2018-11-06T00:09:41.630Z,23.60
2018-11-06T00:10:41.710Z,21.60
2018-11-06T00:11:41.572Z,22.40
2018-11-06T00:12:41.623Z,23.90
2018-11-06T00:13:41.521Z,22.00
2018-11-06T00:14:41.489Z,22.00
2018-11-06T00:15:41.638Z,24.50
2018-11-06T00:16:41.440Z,23.50
2018-11-06T00:17:41.558Z,22.40
2018-11-06T00:18:41.390Z,22.70
2018-11-06T00:19:41.360Z,22.90
2018-11-06T00:20:41.338Z,22.40
2018-11-06T00:21:41.480Z,22.30
2018-11-06T00:22:41.284Z,24.80
2018-11-06T00:23:41.405Z,24.20
2018-11-06T00:24:41.221Z,21.80
2018-11-06T00:25:41.317Z,22.70
2018-11-06T00:26:41.180Z,21.30
2018-11-06T00:27:42.242Z,21.50
2018-11-06T00:28:41.119Z,22.40
2018-11-06T00:29:41.165Z,22.60
2018-11-06T00:30:41.074Z,21.70
2018-11-06T00:31:41.137Z,21.50
2018-11-06T00:32:41.018Z,20.30
2018-11-06T00:33:41.159Z,21.00
2018-11-06T00:34:40.960Z,21.70
2018-11-06T00:35:40.933Z,20.10
2018-11-06T00:36:40.909Z,24.10
2018-11-06T00:37:40.982Z,23.60
2018-11-06T00:38:40.851Z,22.70
2018-11-06T00:39:41.008Z,22.00
2018-11-06T00:40:40.799Z,21.80
2018-11-06T00:41:40.911Z,22.40
2018-11-06T00:42:40.741Z,23.20
2018-11-06T00:43:40.819Z,25.40
2018-11-06T00:44:40.690Z,26.40
2018-11-06T00:45:40.830Z,22.10
2018-11-06T00:46:40.633Z,21.90
2018-11-06T00:47:40.744Z,21.70
2018-11-06T00:48:40.583Z,22.60
2018-11-06T00:49:40.578Z,22.90
2018-11-06T00:50:40.530Z,24.70
2018-11-06T00:51:40.500Z,22.80
2018-11-06T00:52:40.680Z,23.10
2018-11-06T00:53:40.442Z,24.50
2018-11-06T00:54:40.599Z,25.30
2018-11-06T00:55:40.389Z,24.30
2018-11-06T00:56:40.500Z,25.40
2018-11-06T00:57:40.349Z,25.90
2018-11-06T00:58:40.510Z,21.30
2018-11-06T00:59:40.294Z,23.40
2018-11-06T01:00:40.436Z,22.50
2018-11-06T01:01:40.218Z,22.50
2018-11-06T01:02:40.208Z,22.30
2018-11-06T01:03:40.235Z,23.40
2018-11-06T01:04:40.348Z,20.20
2018-11-06T01:05:40.181Z,24.50
2018-11-06T01:06:40.257Z,22.90
2018-11-06T01:07:40.268Z,24.00
2018-11-06T01:08:40.047Z,23.10
2018-11-06T01:09:40.177Z,20.90
2018-11-06T01:10:39.998Z,25.60
2018-11-06T01:11:40.087Z,24.50
2018-11-06T01:12:39.948Z,24.80
2018-11-06T01:13:40.128Z,25.90
2018-11-06T01:14:39.881Z,26.40
2018-11-06T01:15:40.038Z,26.90
2018-11-06T01:16:39.818Z,26.20
2018-11-06T01:17:39.848Z,25.90
2018-11-06T01:18:39.770Z,24.90
2018-11-06T01:19:39.837Z,26.20
2018-11-06T01:20:39.720Z,25.20
2018-11-06T01:21:39.749Z,27.00
2018-11-06T01:22:39.680Z,25.60
2018-11-06T01:23:39.636Z,26.20
2018-11-06T01:24:39.610Z,23.80
2018-11-06T01:25:39.691Z,26.80
2018-11-06T01:26:39.555Z,27.30
2018-11-06T01:27:39.590Z,26.20
2018-11-06T01:28:39.509Z,26.80
2018-11-06T01:29:39.501Z,25.50
2018-11-06T01:30:39.450Z,25.30
2018-11-06T01:31:39.529Z,28.20
2018-11-06T01:32:39.389Z,26.90
2018-11-06T01:33:39.447Z,27.30
2018-11-06T01:34:39.330Z,26.90
2018-11-06T01:35:39.354Z,25.30
2018-11-06T01:36:39.286Z,25.20
2018-11-06T01:37:39.358Z,24.20
2018-11-06T01:38:39.225Z,25.40
2018-11-06T01:39:39.201Z,24.90
2018-11-06T01:40:39.179Z,26.00
2018-11-06T01:41:39.187Z,26.20
2018-11-06T01:42:39.109Z,25.50
2018-11-06T01:43:39.190Z,26.70
2018-11-06T01:44:39.060Z,25.50
2018-11-06T01:45:39.108Z,26.90
2018-11-06T01:46:38.999Z,26.30
2018-11-06T01:47:39.120Z,26.30
2018-11-06T01:48:38.957Z,27.10
2018-11-06T01:49:39.032Z,26.20
2018-11-06T01:50:38.899Z,25.40
2018-11-06T01:51:38.939Z,26.30
2018-11-06T01:52:38.854Z,26.50
2018-11-06T01:53:38.959Z,24.40
2018-11-06T01:54:38.790Z,24.90
2018-11-06T01:55:38.769Z,26.40
2018-11-06T01:56:38.730Z,26.00
2018-11-06T01:57:38.780Z,26.50
2018-11-06T01:58:38.681Z,26.60
2018-11-06T01:59:38.798Z,27.80
2018-11-06T02:00:38.621Z,26.00
2018-11-06T02:01:38.709Z,26.40
2018-11-06T02:02:38.569Z,25.90
2018-11-06T02:03:38.620Z,26.50
2018-11-06T02:04:38.519Z,27.70
2018-11-06T02:05:38.641Z,26.10
2018-11-06T02:06:38.470Z,26.40
2018-11-06T02:07:38.539Z,25.60
2018-11-06T02:08:38.418Z,25.60
2018-11-06T02:09:38.458Z,26.70
2018-11-06T02:10:38.357Z,26.40
2018-11-06T02:11:38.328Z,25.90
2018-11-06T02:12:38.300Z,27.20
2018-11-06T02:13:38.380Z,26.50
2018-11-06T02:14:38.237Z,24.80
2018-11-06T02:15:38.290Z,26.40
2018-11-06T02:16:38.197Z,26.20
2018-11-06T02:17:38.158Z,25.50
2018-11-06T02:18:38.208Z,26.00
2018-11-06T02:19:38.098Z,25.80
2018-11-06T02:20:38.229Z,27.80
2018-11-06T02:21:38.048Z,27.70
2018-11-06T02:22:38.019Z,26.40
2018-11-06T02:23:37.998Z,26.10
2018-11-06T02:24:38.049Z,26.00
2018-11-06T02:25:37.937Z,27.60
2018-11-06T02:26:38.069Z,27.70
2018-11-06T02:27:37.978Z,26.60
2018-11-06T02:28:37.868Z,27.70
2018-11-06T02:29:37.979Z,26.80
2018-11-06T02:30:37.809Z,27.40
2018-11-06T02:31:37.908Z,28.10
2018-11-06T02:32:37.952Z,26.10
2018-11-06T02:33:37.720Z,26.60
2018-11-06T02:34:37.812Z,26.30
2018-11-06T02:35:37.670Z,26.60
2018-11-06T02:36:37.730Z,25.90
2018-11-06T02:37:37.625Z,25.30
2018-11-06T02:38:37.592Z,25.00
2018-11-06T02:39:37.559Z,26.30
2018-11-06T02:40:37.548Z,26.80
2018-11-06T02:41:37.508Z,25.60
2018-11-06T02:42:37.560Z,27.70
2018-11-06T02:43:37.459Z,27.60
2018-11-06T02:44:37.469Z,26.80
2018-11-06T02:45:37.402Z,27.80
2018-11-06T02:46:37.398Z,27.40
2018-11-06T02:47:37.347Z,27.80
2018-11-06T02:48:37.459Z,28.00
2018-11-06T02:49:37.297Z,26.80
2018-11-06T02:50:37.310Z,27.60
2018-11-06T02:51:37.238Z,28.00
2018-11-06T02:52:37.230Z,27.90
2018-11-06T02:53:37.179Z,27.50
2018-11-06T02:54:37.163Z,26.40
2018-11-06T02:55:37.180Z,27.20
2018-11-06T02:56:37.158Z,26.80
2018-11-06T02:57:37.068Z,27.40
2018-11-06T02:58:37.059Z,27.00
2018-11-06T02:59:37.068Z,28.00
2018-11-06T03:00:36.989Z,26.40
2018-11-06T03:01:36.978Z,26.90
2018-11-06T03:02:36.939Z,26.50
2018-11-06T03:03:37.000Z,27.80
2018-11-06T03:04:36.887Z,27.90
2018-11-06T03:05:36.859Z,26.20
2018-11-06T03:06:36.918Z,26.30
2018-11-06T03:07:36.809Z,26.70
2018-11-06T03:08:36.828Z,26.80
2018-11-06T03:09:36.749Z,28.60
2018-11-06T03:10:36.732Z,27.70
2018-11-06T03:11:36.749Z,26.90
2018-11-06T03:12:36.668Z,26.50
2018-11-06T03:13:36.760Z,27.40
2018-11-06T03:14:36.617Z,27.20
2018-11-06T03:15:36.590Z,26.00
2018-11-06T03:16:36.616Z,26.50
2018-11-06T03:17:36.689Z,25.60
2018-11-06T03:18:36.514Z,26.40
2018-11-06T03:19:36.701Z,25.40
2018-11-06T03:20:36.458Z,26.90
2018-11-06T03:21:36.428Z,26.30
2018-11-06T03:22:36.627Z,25.80
2018-11-06T03:23:36.386Z,26.10
2018-11-06T03:24:36.528Z,26.10
2018-11-06T03:25:36.325Z,25.20
2018-11-06T03:26:36.302Z,23.80
2018-11-06T03:27:36.277Z,24.90
2018-11-06T03:28:36.361Z,26.00
2018-11-06T03:29:36.225Z,26.20
2018-11-06T03:30:36.270Z,25.80
2018-11-06T03:31:36.169Z,24.90
2018-11-06T03:32:36.194Z,26.50
2018-11-06T03:33:36.109Z,25.40
2018-11-06T03:34:36.195Z,25.80
2018-11-06T03:35:36.066Z,24.80
2018-11-06T03:36:36.090Z,25.40
2018-11-06T03:37:36.009Z,24.40
2018-11-06T03:38:36.019Z,24.10
2018-11-06T03:39:35.950Z,24.70
2018-11-06T03:40:36.027Z,24.80
2018-11-06T03:41:35.897Z,24.20
2018-11-06T03:42:35.870Z,25.00
2018-11-06T03:43:35.847Z,23.70
2018-11-06T03:44:35.949Z,23.70
2018-11-06T03:45:35.788Z,24.40
2018-11-06T03:46:35.868Z,24.40
2018-11-06T03:47:35.748Z,24.90
2018-11-06T03:48:35.778Z,24.70
2018-11-06T03:49:35.688Z,24.70
2018-11-06T03:50:35.789Z,24.90
2018-11-06T03:51:35.639Z,24.90
2018-11-06T03:52:35.700Z,23.50
2018-11-06T03:53:35.587Z,24.20
2018-11-06T03:54:35.619Z,25.20
2018-11-06T03:55:35.526Z,24.70
2018-11-06T03:56:35.628Z,24.70
2018-11-06T03:57:35.476Z,23.70
2018-11-06T03:58:35.451Z,24.20
2018-11-06T03:59:35.426Z,23.50
2018-11-06T04:00:35.448Z,24.20
2018-11-06T04:01:35.373Z,23.30
2018-11-06T04:02:35.467Z,23.10
2018-11-06T04:03:35.317Z,23.70
2018-11-06T04:04:35.378Z,23.60
2018-11-06T04:05:35.268Z,24.10
2018-11-06T04:06:35.390Z,23.30
2018-11-06T04:07:35.207Z,23.60
2018-11-06T04:08:35.305Z,23.30
2018-11-06T04:09:35.166Z,23.20
2018-11-06T04:10:35.217Z,23.20
2018-11-06T04:11:35.118Z,23.40
2018-11-06T04:12:35.227Z,24.30
2018-11-06T04:13:35.049Z,23.50
2018-11-06T04:14:35.029Z,23.50
2018-11-06T04:15:35.148Z,22.60
2018-11-06T04:16:34.979Z,24.40
2018-11-06T04:17:35.059Z,21.90
2018-11-06T04:18:34.927Z,22.90
2018-11-06T04:19:34.900Z,23.40
2018-11-06T04:20:34.878Z,23.70
2018-11-06T04:21:34.990Z,23.10
2018-11-06T04:22:34.826Z,23.50
2018-11-06T04:23:34.907Z,22.70
2018-11-06T04:24:34.774Z,22.10
2018-11-06T04:25:34.807Z,22.40
2018-11-06T04:26:34.717Z,23.20
2018-11-06T04:27:34.818Z,22.60
2018-11-06T04:28:34.659Z,22.50
2018-11-06T04:29:34.746Z,23.50
2018-11-06T04:30:34.740Z,23.00
2018-11-06T04:31:34.581Z,22.20
2018-11-06T04:32:34.648Z,23.80
2018-11-06T04:33:34.530Z,23.10
2018-11-06T04:34:34.669Z,22.40
2018-11-06T04:35:34.581Z,22.50
2018-11-06T04:36:34.453Z,22.50
2018-11-06T04:37:34.589Z,22.70
2018-11-06T04:38:34.402Z,22.70
2018-11-06T04:39:34.501Z,22.20
2018-11-06T04:40:34.382Z,22.80
2018-11-06T04:41:34.418Z,22.80
2018-11-06T04:42:34.300Z,21.90
2018-11-06T04:43:34.431Z,22.10
2018-11-06T04:44:34.242Z,22.10
2018-11-06T04:45:34.271Z,23.20
2018-11-06T04:46:34.193Z,23.10
2018-11-06T04:47:34.350Z,22.20
2018-11-06T04:48:34.137Z,21.90
2018-11-06T04:49:34.265Z,22.10
2018-11-06T04:50:34.088Z,22.30
2018-11-06T04:51:34.067Z,22.30
2018-11-06T04:52:34.047Z,21.70
2018-11-06T04:53:34.190Z,21.80
2018-11-06T04:54:33.978Z,21.70
2018-11-06T04:55:34.099Z,22.20
2018-11-06T04:56:33.930Z,23.10
2018-11-06T04:57:34.009Z,23.50
2018-11-06T04:58:33.889Z,23.80
2018-11-06T04:59:34.032Z,22.50
2018-11-06T05:00:33.827Z,21.90
2018-11-06T05:01:33.940Z,22.60
2018-11-06T05:02:33.769Z,21.70
2018-11-06T05:03:33.847Z,23.00
2018-11-06T05:04:33.719Z,22.80
2018-11-06T05:05:33.868Z,22.70
2018-11-06T05:06:33.671Z,22.70
2018-11-06T05:07:33.639Z,22.60
2018-11-06T05:08:33.779Z,22.70
2018-11-06T05:09:33.592Z,22.00
2018-11-06T05:10:33.699Z,22.40
2018-11-06T05:11:33.545Z,22.30
2018-11-06T05:12:33.510Z,22.50
2018-11-06T05:13:33.490Z,22.60
2018-11-06T05:14:33.619Z,22.10
2018-11-06T05:15:33.440Z,22.80
2018-11-06T05:16:33.528Z,22.00
2018-11-06T05:17:33.387Z,23.00
2018-11-06T05:18:33.347Z,22.80
2018-11-06T05:19:33.448Z,23.10
2018-11-06T05:20:33.293Z,22.80
2018-11-06T05:21:33.466Z,22.40
2018-11-06T05:22:33.250Z,23.00
2018-11-06T05:23:33.226Z,21.50
2018-11-06T05:24:33.200Z,21.40
2018-11-06T05:25:33.373Z,21.90
2018-11-06T05:26:33.200Z,21.60
2018-11-06T05:27:33.329Z,21.90
2018-11-06T05:28:33.091Z,22.30
2018-11-06T05:29:33.207Z,21.60
2018-11-06T05:30:33.039Z,21.80
2018-11-06T05:31:33.229Z,22.30
2018-11-06T05:32:32.996Z,22.90
2018-11-06T05:33:33.141Z,22.50
2018-11-06T05:34:32.943Z,21.80
2018-11-06T05:35:33.049Z,22.40
2018-11-06T05:36:32.888Z,23.00
2018-11-06T05:37:32.960Z,23.40
2018-11-06T05:38:32.829Z,22.60
2018-11-06T05:39:32.854Z,23.00
2018-11-06T05:40:32.781Z,22.20
2018-11-06T05:41:32.790Z,22.50
2018-11-06T05:42:32.734Z,22.20
2018-11-06T05:43:32.802Z,22.80
2018-11-06T05:44:32.679Z,21.60
2018-11-06T05:45:32.768Z,22.60
2018-11-06T05:46:32.630Z,21.80
2018-11-06T05:47:32.728Z,22.10
2018-11-06T05:48:32.568Z,22.50
2018-11-06T05:49:32.640Z,22.80
2018-11-06T05:50:32.519Z,21.60
2018-11-06T05:51:32.550Z,22.30
2018-11-06T05:52:32.462Z,21.40
2018-11-06T05:53:32.559Z,21.20
2018-11-06T05:54:32.425Z,22.30
2018-11-06T05:55:32.387Z,22.00
2018-11-06T05:56:32.369Z,23.20
2018-11-06T05:57:32.389Z,22.40
2018-11-06T05:58:32.307Z,22.40
2018-11-06T05:59:32.401Z,22.50
2018-11-06T06:00:32.331Z,22.00
2018-11-06T06:01:32.315Z,22.60
2018-11-06T06:02:32.207Z,22.60
2018-11-06T06:03:32.218Z,22.70
2018-11-06T06:04:32.159Z,22.30
2018-11-06T06:05:32.238Z,21.90
2018-11-06T06:06:32.111Z,23.30
2018-11-06T06:07:32.150Z,22.80
2018-11-06T06:08:32.048Z,22.30
2018-11-06T06:09:32.158Z,21.50
2018-11-06T06:10:32.007Z,23.40
2018-11-06T06:11:31.980Z,22.50
2018-11-06T06:12:31.949Z,22.60
2018-11-06T06:13:31.987Z,23.70
2018-11-06T06:14:31.905Z,22.90
2018-11-06T06:15:32.001Z,22.90
2018-11-06T06:16:31.909Z,23.00
2018-11-06T06:17:31.911Z,21.50
2018-11-06T06:18:31.800Z,22.10
2018-11-06T06:19:31.830Z,22.30
2018-11-06T06:20:31.739Z,22.40
2018-11-06T06:21:31.839Z,21.80
2018-11-06T06:22:31.721Z,21.90
2018-11-06T06:23:31.658Z,22.20
2018-11-06T06:24:31.762Z,22.00
2018-11-06T06:25:31.618Z,21.90
2018-11-06T06:26:31.668Z,22.60
2018-11-06T06:27:31.680Z,21.70
2018-11-06T06:28:31.592Z,21.80
2018-11-06T06:29:31.591Z,21.00
2018-11-06T06:30:31.481Z,21.60
2018-11-06T06:31:31.599Z,21.80
2018-11-06T06:32:31.428Z,20.80
2018-11-06T06:33:31.512Z,21.10
2018-11-06T06:34:31.391Z,21.40
2018-11-06T06:35:31.439Z,21.00
2018-11-06T06:36:31.328Z,21.40
2018-11-06T06:37:31.446Z,21.30
2018-11-06T06:38:31.366Z,20.30
2018-11-06T06:39:31.254Z,21.10
2018-11-06T06:40:31.359Z,20.60
2018-11-06T06:41:31.189Z,20.70
2018-11-06T06:42:31.274Z,21.90
2018-11-06T06:43:31.281Z,21.50
2018-11-06T06:44:31.118Z,20.90
2018-11-06T06:45:31.190Z,20.70
2018-11-06T06:46:31.175Z,21.20
2018-11-06T06:47:31.204Z,22.10
2018-11-06T06:48:31.009Z,21.60
2018-11-06T06:49:30.989Z,21.20
2018-11-06T06:50:31.121Z,21.60
2018-11-06T06:51:30.945Z,22.00
2018-11-06T06:52:31.027Z,20.60
2018-11-06T06:53:30.887Z,20.80
2018-11-06T06:54:30.985Z,21.70
2018-11-06T06:55:30.951Z,20.50
2018-11-06T06:56:30.815Z,20.30
2018-11-06T06:57:30.859Z,21.00
2018-11-06T06:58:30.748Z,21.90
2018-11-06T06:59:30.728Z,20.60
2018-11-06T07:00:30.887Z,20.70
2018-11-06T07:01:30.669Z,20.50
2018-11-06T07:02:30.807Z,20.30
2018-11-06T07:03:30.618Z,21.70
2018-11-06T07:04:30.600Z,20.10
2018-11-06T07:05:30.576Z,22.00
2018-11-06T07:06:30.722Z,20.50
2018-11-06T07:07:30.530Z,20.10
2018-11-06T07:08:30.638Z,20.00
2018-11-06T07:09:30.467Z,20.90
2018-11-06T07:10:30.448Z,21.00
2018-11-06T07:11:30.553Z,20.20
2018-11-06T07:12:30.387Z,20.60
2018-11-06T07:13:30.470Z,21.30
2018-11-06T07:14:30.337Z,20.70
2018-11-06T07:15:30.315Z,20.30
2018-11-06T07:16:30.288Z,21.00
2018-11-06T07:17:30.391Z,20.60
2018-11-06T07:18:30.238Z,20.70
2018-11-06T07:19:30.409Z,21.20
2018-11-06T07:20:30.309Z,21.20
2018-11-06T07:21:30.160Z,21.90
2018-11-06T07:22:30.337Z,21.20
2018-11-06T07:23:30.107Z,20.20
2018-11-06T07:24:30.237Z,21.00
2018-11-06T07:25:30.048Z,21.50
2018-11-06T07:26:30.147Z,20.60
2018-11-06T07:27:30.003Z,21.30
2018-11-06T07:28:30.171Z,22.50
2018-11-06T07:29:29.948Z,21.40
2018-11-06T07:30:30.074Z,21.50
2018-11-06T07:31:29.898Z,20.90
2018-11-06T07:32:29.990Z,22.30
2018-11-06T07:33:29.848Z,22.00
2018-11-06T07:34:30.007Z,22.50
2018-11-06T07:35:29.922Z,21.20
2018-11-06T07:36:29.768Z,21.90
2018-11-06T07:37:29.743Z,21.60
2018-11-06T07:38:29.829Z,21.50
2018-11-06T07:39:29.705Z,22.40
2018-11-06T07:40:29.883Z,21.40
2018-11-06T07:41:29.840Z,22.20
2018-11-06T07:42:29.617Z,21.90
2018-11-06T07:43:29.757Z,22.30
2018-11-06T07:44:29.577Z,22.50
2018-11-06T07:45:29.669Z,22.20
2018-11-06T07:46:29.517Z,22.10
2018-11-06T07:47:29.498Z,21.60
2018-11-06T07:48:29.480Z,21.10
2018-11-06T07:49:29.437Z,21.50
2018-11-06T07:50:29.560Z,21.10
2018-11-06T07:51:29.379Z,21.20
2018-11-06T07:52:29.358Z,20.50
2018-11-06T07:53:29.338Z,21.00
2018-11-06T07:54:29.432Z,21.40
2018-11-06T07:55:29.297Z,21.00
2018-11-06T07:56:29.338Z,21.20
2018-11-06T07:57:29.336Z,20.40
2018-11-06T07:58:29.208Z,20.60
2018-11-06T07:59:29.257Z,20.50
2018-11-06T08:00:29.157Z,20.80
2018-11-06T08:01:29.169Z,19.90
2018-11-06T08:02:29.097Z,21.10
2018-11-06T08:03:29.079Z,21.10
2018-11-06T08:04:29.260Z,20.70
2018-11-06T08:05:29.029Z,20.60
2018-11-06T08:06:29.202Z,19.80
2018-11-06T08:07:28.978Z,20.70
2018-11-06T08:08:28.950Z,21.40
2018-11-06T08:09:29.057Z,20.40
2018-11-06T08:10:28.899Z,21.30
2018-11-06T08:11:28.929Z,20.40
2018-11-06T08:12:28.848Z,20.90
2018-11-06T08:13:28.834Z,20.90
2018-11-06T08:14:28.858Z,21.00
2018-11-06T08:15:28.857Z,20.40
2018-11-06T08:16:28.759Z,20.10
2018-11-06T08:17:28.869Z,20.50
2018-11-06T08:18:28.699Z,19.60
2018-11-06T08:19:28.779Z,20.30
2018-11-06T08:20:28.712Z,20.40
2018-11-06T08:21:28.686Z,19.30
2018-11-06T08:22:28.598Z,19.80
2018-11-06T08:23:28.670Z,20.40
2018-11-06T08:24:28.548Z,20.50
2018-11-06T08:25:28.616Z,19.20
2018-11-06T08:26:28.509Z,19.50
2018-11-06T08:27:28.562Z,19.00
2018-11-06T08:28:28.447Z,19.60
2018-11-06T08:29:28.432Z,19.00
2018-11-06T08:30:28.414Z,19.30
2018-11-06T08:31:29.093Z,20.10
2018-11-06T08:32:28.867Z,19.90
2018-11-06T08:33:28.428Z,19.10
2018-11-06T08:34:28.307Z,19.90
2018-11-06T08:35:28.338Z,18.00
2018-11-06T08:36:28.304Z,18.60
2018-11-06T08:37:28.248Z,18.90
2018-11-06T08:38:28.196Z,19.00
2018-11-06T08:40:59.958Z,18.70
2018-11-06T08:41:59.868Z,18.30
2018-11-06T08:42:59.957Z,18.40
2018-11-06T08:43:59.818Z,18.80
2018-11-06T08:44:59.790Z,19.00
2018-11-06T08:45:59.774Z,19.00
2018-11-06T08:46:59.768Z,18.40
2018-11-06T08:47:59.777Z,18.50
2018-11-06T08:48:59.779Z,18.40
2018-11-06T08:49:59.667Z,18.00
2018-11-06T08:50:59.687Z,19.10
2018-11-06T08:51:59.629Z,18.30
2018-11-06T08:52:59.698Z,18.70
2018-11-06T08:53:59.576Z,17.60
2018-11-06T08:54:59.609Z,18.40
2018-11-06T08:55:59.520Z,17.90
2018-11-06T08:56:59.524Z,17.90
2018-11-06T08:57:59.479Z,18.00
2018-11-06T08:58:59.528Z,18.40
2018-11-06T08:59:59.425Z,18.30
2018-11-06T09:00:59.400Z,18.70
2018-11-06T09:01:59.382Z,17.90
2018-11-06T09:02:59.566Z,17.90
2018-11-06T09:03:59.336Z,18.10
2018-11-06T09:04:59.467Z,17.80
2018-11-06T09:05:59.287Z,18.00
2018-11-06T09:06:59.376Z,17.60
2018-11-06T09:07:59.248Z,17.70
2018-11-06T09:08:59.431Z,18.50
2018-11-06T09:09:59.208Z,18.30
2018-11-06T09:10:59.300Z,18.30
2018-11-06T09:11:59.148Z,17.30
2018-11-06T09:12:59.320Z,16.60
2018-11-06T09:13:59.114Z,17.30
2018-11-06T09:14:59.126Z,16.80
2018-11-06T09:15:59.072Z,16.60
2018-11-06T09:16:59.078Z,17.20
2018-11-06T09:17:59.029Z,16.10
2018-11-06T09:18:59.057Z,16.30
2018-11-06T09:19:58.978Z,16.20
2018-11-06T09:20:59.068Z,15.70
2018-11-06T09:21:58.950Z,15.00
2018-11-06T09:22:58.982Z,16.10
2018-11-06T09:23:58.905Z,15.60
2018-11-06T09:24:58.997Z,15.60
2018-11-06T09:25:58.877Z,15.40
2018-11-06T09:26:58.908Z,14.00
2018-11-06T09:27:58.834Z,14.80
2018-11-06T09:28:58.918Z,15.90
2018-11-06T09:29:58.798Z,14.80
2018-11-06T09:30:58.860Z,14.90
2018-11-06T09:31:58.758Z,14.60
2018-11-06T09:32:58.738Z,14.30
2018-11-06T09:33:58.717Z,14.00
2018-11-06T09:34:58.781Z,13.50
2018-11-06T09:35:58.702Z,13.70
2018-11-06T09:36:58.769Z,13.00
2018-11-06T09:37:58.664Z,12.60
2018-11-06T09:38:58.800Z,13.10
2018-11-06T09:39:58.637Z,12.60
2018-11-06T09:40:58.699Z,13.60
2018-11-06T09:41:58.609Z,13.60
2018-11-06T09:42:58.725Z,13.10
2018-11-06T09:43:58.581Z,13.00
2018-11-06T09:44:58.674Z,12.40
2018-11-06T09:45:58.559Z,12.90
2018-11-06T09:46:58.637Z,12.50
2018-11-06T09:47:58.538Z,12.50
2018-11-06T09:48:58.520Z,12.60
2018-11-06T09:49:58.531Z,12.60
2018-11-06T09:50:58.568Z,12.50
2018-11-06T09:51:58.503Z,11.80
2018-11-06T09:52:58.580Z,12.20
2018-11-06T09:53:58.469Z,12.40
2018-11-06T09:54:58.595Z,12.10
2018-11-06T09:55:58.448Z,12.00
2018-11-06T09:56:58.513Z,11.70
2018-11-06T09:57:58.427Z,12.00
2018-11-06T09:58:58.523Z,12.20
2018-11-06T09:59:58.532Z,12.10
2018-11-06T10:00:58.399Z,12.00
2018-11-06T10:01:58.542Z,11.40
2018-11-06T10:02:58.381Z,11.40
2018-11-06T10:03:58.471Z,11.20
2018-11-06T10:04:58.368Z,10.60
2018-11-06T10:05:58.515Z,10.10
2018-11-06T10:06:58.649Z,11.20
2018-11-06T10:07:58.555Z,10.30
2018-11-06T10:08:58.332Z,10.20
2018-11-06T10:09:58.388Z,9.70
2018-11-06T10:10:58.309Z,10.10
2018-11-06T10:11:58.407Z,10.10
2018-11-06T10:12:58.299Z,9.90
2018-11-06T10:13:58.420Z,9.80
2018-11-06T10:14:58.280Z,9.80
2018-11-06T10:15:58.274Z,9.40
2018-11-06T10:16:58.269Z,9.80
2018-11-06T10:17:58.351Z,10.20
2018-11-06T10:18:58.251Z,10.00
2018-11-06T10:19:58.358Z,9.90
2018-11-06T10:20:58.247Z,10.60
2018-11-06T10:21:58.368Z,9.90
2018-11-06T10:22:58.230Z,9.80
2018-11-06T10:23:58.388Z,9.80
2018-11-06T10:24:58.214Z,10.00
2018-11-06T10:25:58.237Z,10.40
2018-11-06T10:26:58.309Z,9.80
2018-11-06T10:27:58.196Z,10.10
2018-11-06T10:28:58.324Z,10.00
2018-11-06T10:29:58.181Z,10.30
2018-11-06T10:30:58.455Z,10.10
2018-11-06T10:31:58.167Z,9.90
2018-11-06T10:32:58.250Z,9.80
2018-11-06T10:33:58.147Z,9.70
2018-11-06T10:34:58.259Z,9.70
2018-11-06T10:35:58.140Z,9.30
2018-11-06T10:36:58.281Z,10.30
2018-11-06T10:37:58.275Z,9.80
2018-11-06T10:38:58.109Z,9.70
2018-11-06T10:39:58.188Z,9.50
2018-11-06T10:40:58.090Z,9.70
2018-11-06T10:41:58.208Z,9.70
2018-11-06T10:42:58.087Z,9.50
2018-11-06T10:43:58.218Z,9.30
2018-11-06T10:44:58.068Z,9.00
2018-11-06T10:45:58.238Z,9.70
2018-11-06T10:46:58.048Z,9.10
2018-11-06T10:47:58.148Z,9.60
2018-11-06T10:48:58.044Z,9.00
2018-11-06T10:49:58.158Z,9.30
2018-11-06T10:50:58.039Z,9.50
2018-11-06T10:51:58.244Z,8.90
2018-11-06T10:52:58.007Z,9.20
2018-11-06T10:53:58.022Z,8.80
2018-11-06T10:54:57.999Z,9.20
2018-11-06T10:55:58.027Z,9.00
2018-11-06T10:56:57.998Z,8.80
2018-11-06T10:57:58.077Z,8.90
2018-11-06T10:58:57.969Z,9.20
2018-11-06T10:59:58.037Z,9.00
2018-11-06T11:00:57.958Z,9.10
2018-11-06T11:01:58.048Z,8.80
2018-11-06T11:02:57.962Z,8.80
2018-11-06T11:03:57.985Z,8.40
2018-11-06T11:04:57.938Z,8.70
2018-11-06T11:05:57.980Z,8.80
2018-11-06T11:06:57.918Z,8.50
2018-11-06T11:07:57.987Z,8.90
2018-11-06T11:08:57.911Z,8.80
2018-11-06T11:09:57.917Z,9.20
2018-11-06T11:10:58.010Z,9.00
2018-11-06T11:11:57.897Z,8.50
2018-11-06T11:12:57.919Z,9.10
2018-11-06T11:13:57.877Z,9.50
2018-11-06T11:14:57.869Z,9.10
2018-11-06T11:15:57.865Z,8.90
2018-11-06T11:16:57.948Z,9.40
2018-11-06T11:17:57.852Z,9.10
2018-11-06T11:18:57.859Z,9.00
2018-11-06T11:19:57.880Z,9.50
2018-11-06T11:20:57.838Z,8.40
2018-11-06T11:21:57.866Z,9.40
2018-11-06T11:22:57.809Z,9.70
2018-11-06T11:23:57.877Z,9.10
2018-11-06T11:24:57.790Z,8.90
2018-11-06T11:25:57.901Z,8.90
2018-11-06T11:26:57.778Z,9.30
2018-11-06T11:27:59.856Z,8.80
2018-11-06T11:28:57.761Z,9.10
2018-11-06T11:29:57.836Z,8.90
2018-11-06T11:30:57.746Z,8.60
2018-11-06T11:31:57.849Z,8.40
2018-11-06T11:32:57.732Z,8.60
2018-11-06T11:33:58.779Z,9.00
2018-11-06T11:34:57.726Z,8.50
2018-11-06T11:35:57.723Z,8.80
2018-11-06T11:36:57.698Z,8.70
2018-11-06T11:37:57.794Z,8.10
2018-11-06T11:38:57.684Z,8.40
2018-11-06T11:39:57.801Z,8.20
2018-11-06T11:40:57.708Z,8.50
2018-11-06T11:41:57.657Z,8.40
2018-11-06T11:42:57.728Z,8.20
2018-11-06T11:43:57.655Z,8.20
2018-11-06T11:44:57.728Z,7.90
2018-11-06T11:45:57.715Z,7.90
2018-11-06T11:46:57.653Z,7.70
2018-11-06T11:47:57.637Z,8.20
2018-11-06T11:48:57.659Z,8.00
2018-11-06T11:49:57.588Z,8.00
2018-11-06T11:50:57.678Z,8.00
2018-11-06T11:51:57.584Z,7.60
2018-11-06T11:52:57.594Z,7.80
2018-11-06T11:53:57.567Z,8.10
2018-11-06T11:54:57.599Z,7.60
2018-11-06T11:55:57.546Z,8.10
2018-11-06T11:56:57.544Z,8.70
2018-11-06T11:57:57.535Z,7.60
2018-11-06T11:58:57.627Z,7.40
2018-11-06T11:59:57.554Z,8.10
2018-11-06T12:00:57.538Z,7.60
2018-11-06T12:01:57.558Z,7.20
2018-11-06T12:02:57.579Z,8.10
2018-11-06T12:03:57.491Z,7.60
2018-11-06T12:04:57.567Z,7.60
2018-11-06T12:05:57.467Z,7.10
2018-11-06T12:06:57.597Z,7.30
2018-11-06T12:07:57.459Z,7.30
2018-11-06T12:08:57.499Z,7.00
2018-11-06T12:09:57.446Z,7.40
2018-11-06T12:10:57.530Z,7.00
2018-11-06T12:11:57.431Z,7.10
2018-11-06T12:12:57.416Z,7.00
2018-11-06T12:13:57.407Z,7.10
2018-11-06T12:14:57.452Z,7.50
2018-11-06T12:15:57.399Z,7.10
2018-11-06T12:16:57.447Z,7.10
2018-11-06T12:17:57.385Z,7.30
2018-11-06T12:18:57.477Z,7.00
2018-11-06T12:19:57.360Z,7.20
2018-11-06T12:20:57.377Z,7.40
2018-11-06T12:21:57.337Z,7.20
2018-11-06T12:22:57.387Z,7.40
2018-11-06T12:23:57.358Z,7.20
2018-11-06T12:24:57.582Z,7.40
2018-11-06T12:25:57.327Z,7.00
2018-11-06T12:26:57.328Z,7.30
2018-11-06T12:27:57.288Z,7.00
2018-11-06T12:28:57.284Z,7.40
2018-11-06T12:29:57.276Z,7.10
2018-11-06T12:30:57.338Z,6.70
2018-11-06T12:31:57.261Z,7.30
2018-11-06T12:32:57.359Z,6.60
2018-11-06T12:33:57.236Z,6.90
2018-11-06T12:34:57.278Z,6.60
2018-11-06T12:35:57.229Z,6.80
2018-11-06T12:36:57.355Z,7.10
2018-11-06T12:37:57.199Z,7.20
2018-11-06T12:38:57.297Z,7.00
2018-11-06T12:39:57.176Z,6.50
2018-11-06T12:40:57.215Z,6.70
2018-11-06T12:41:57.157Z,7.10
2018-11-06T12:42:57.294Z,6.70
2018-11-06T12:43:57.141Z,6.80
2018-11-06T12:44:57.127Z,6.60
2018-11-06T12:45:57.133Z,7.00
2018-11-06T12:46:57.153Z,6.00
2018-11-06T12:47:57.096Z,6.40
2018-11-06T12:48:57.172Z,6.90
2018-11-06T12:49:57.066Z,6.40
2018-11-06T12:50:57.077Z,6.50
2018-11-06T12:51:57.047Z,6.80
2018-11-06T12:52:57.092Z,6.50
2018-11-06T12:53:57.031Z,6.30
2018-11-06T12:54:57.106Z,6.70
2018-11-06T12:55:57.006Z,6.60
2018-11-06T12:56:57.023Z,6.50
2018-11-06T12:57:56.977Z,6.30
2018-11-06T12:58:57.025Z,6.40